DW5858 Weather Reports


Display with metric or nautical units.
time (UTC)temp
F
wind
direction
speed
MPH
gust
MPH
rain 1hr
in
rain 24hr
in
rain mn
in
humidity
%
barometer
mb
20210625072504 71 1 0.0 2.0 0.00 0.19 0.06 92 1007.3
20210625072004 71 1 1.0 3.0 0.00 0.19 0.06 92 1007.5
20210625071506 71 1 1.0 3.0 0.00 0.19 0.06 92 1007.5
20210625071004 71 1 0.0 2.0 0.00 0.19 0.06 92 1007.7
20210625070004 71 1 0.0 2.0 0.00 0.19 0.06 92 1007.8
20210625065503 71 1 1.0 2.0 0.00 0.19 0.06 92 1007.7
20210625064505 71 1 1.0 2.0 0.00 0.19 0.06 92 1008.2
20210625063005 71 24 0.0 2.0 0.00 0.19 0.06 92 1008.3
20210625061505 71 0 0.0 0.0 0.00 0.19 0.06 91 1008.5
20210625061003 71 37 0.0 1.0 0.00 0.19 0.06 91 1008.4
20210625060005 72 37 0.0 1.0 0.00 0.19 0.06 91 1008.6
20210625055503 72 37 0.0 1.0 0.00 0.19 0.06 91 1008.4
20210625055005 72 38 0.0 1.0 0.00 0.19 0.06 91 1008.4
20210625054507 72 38 0.0 1.0 0.00 0.19 0.06 91 1008.4
20210625054004 72 34 0.0 1.0 0.00 0.19 0.06 91 1008.5
20210625053503 72 1 0.0 1.0 0.00 0.19 0.06 90 1008.6
20210625053005 72 1 0.0 1.0 0.00 0.19 0.06 90 1008.7
20210625052504 72 0 0.0 0.0 0.00 0.19 0.06 90 1008.7
20210625050503 73 1 1.0 2.0 0.00 0.19 0.06 90 1008.3
20210625045505 73 1 2.0 3.0 0.00 0.19 0.06 90 1008.1
20210625045003 73 1 3.0 6.0 0.00 0.19 0.06 90 1007.9
20210625044505 73 2 3.0 6.0 0.00 0.19 0.06 90 1007.9
20210625043503 73 359 2.0 8.0 0.00 0.19 0.06 90 1007.9
20210625043005 73 1 2.0 4.0 0.00 0.19 0.06 90 1008.0
20210625042504 73 1 3.0 6.0 0.00 0.19 0.06 90 1007.7
20210625041505 73 1 3.0 5.0 0.00 0.19 0.06 90 1007.4
20210625041005 73 1 2.0 5.0 0.00 0.19 0.06 89 1007.3
20210625040005 74 358 2.0 4.0 0.00 0.19 0.06 89 1007.2
20210625035003 74 1 1.0 4.0 0.00 0.19 0.06 89 1006.9
20210625034505 74 1 1.0 4.0 0.00 0.19 0.06 89 1006.7
20210625033503 74 8 2.0 3.0 0.00 0.19 0.06 89 1006.9
20210625032504 74 1 1.0 4.0 0.00 0.19 0.06 89 1006.7
20210625032003 74 1 1.0 4.0 0.00 0.19 0.06 88 1006.6
20210625030005 74 1 1.0 3.0 0.00 0.19 0.06 88 1005.8
20210625025004 74 1 1.0 3.0 0.00 0.19 0.06 87 1005.5
20210625024504 74 1 1.0 2.0 0.00 0.19 0.06 87 1005.6
20210625024004 74 1 1.0 2.0 0.00 0.19 0.06 87 1005.8
20210625023504 74 1 2.0 3.0 0.00 0.19 0.06 87 1005.6
20210625023004 74 2 2.0 4.0 0.00 0.19 0.06 87 1005.6
20210625022505 74 2 1.0 4.0 0.00 0.19 0.06 87 1005.5
20210625021004 75 2 2.0 5.0 0.00 0.19 0.06 87 1005.6
20210625020503 75 2 2.0 5.0 0.00 0.19 0.06 87 1005.3
20210625020005 75 2 2.0 4.0 0.00 0.19 0.06 86 1005.2
20210625015504 75 1 2.0 4.0 0.00 0.19 0.06 86 1004.9
20210625014506 75 1 2.0 4.0 0.01 0.19 0.06 86 1003.6
20210625014003 75 1 2.0 5.0 0.02 0.19 0.06 87 1003.5
20210625013005 75 1 2.0 6.0 0.04 0.19 0.06 87 1003.6
20210625012503 75 1 3.0 6.0 0.05 0.19 0.06 87 1003.6
20210625012004 75 1 2.0 5.0 0.06 0.19 0.06 87 1004.0
20210625011004 75 1 1.0 3.0 0.07 0.19 0.06 88 1005.1
20210625005004 75 1 4.0 8.0 0.08 0.18 0.05 87 1006.0
20210625004505 76 1 3.0 8.0 0.08 0.17 0.04 87 1006.2
20210625004003 76 1 1.0 4.0 0.07 0.16 0.03 87 1007.6
20210625003504 76 1 0.0 1.0 0.06 0.15 0.02 86 1008.3
20210625002503 76 1 2.0 3.0 0.05 0.14 0.01 85 1008.8
20210625002004 77 1 2.0 5.0 0.04 0.13 0.00 85 1009.0
20210625001505 77 1 2.0 5.0 0.04 0.13 0.13 84 1009.4
20210625001004 77 1 2.0 4.0 0.03 0.12 0.12 82 1009.3
20210625000503 78 1 3.0 5.0 0.03 0.12 0.12 81 1009.0
20210624235504 79 359 3.0 5.0 0.01 0.10 0.10 79 1008.1
20210624235004 79 359 2.0 4.0 0.01 0.10 0.10 78 1007.8
20210624233005 81 1 4.0 8.0 0.00 0.09 0.09 75 1007.3
20210624232504 81 1 4.0 8.0 0.00 0.09 0.09 74 1007.5
20210624232007 81 1 3.0 6.0 0.00 0.09 0.09 73 1007.5
20210624231506 82 1 2.0 6.0 0.00 0.09 0.09 73 1007.8
20210624231003 82 1 1.0 3.0 0.00 0.09 0.09 72 1007.9
20210624230504 82 1 1.0 3.0 0.00 0.09 0.09 72 1007.9
20210624225503 82 1 0.0 2.0 0.00 0.09 0.09 72 1007.5
20210624225004 82 1 0.0 2.0 0.00 0.09 0.09 72 1007.6
20210624224505 82 1 0.0 2.0 0.00 0.09 0.09 72 1007.7
20210624222504 83 1 0.0 3.0 0.00 0.09 0.09 70 1007.9
20210624222003 83 1 1.0 3.0 0.00 0.09 0.09 70 1007.9
20210624221505 83 1 1.0 3.0 0.00 0.09 0.09 69 1007.8
20210624221004 84 1 1.0 3.0 0.00 0.09 0.09 68 1007.7
20210624215504 84 1 1.0 4.0 0.00 0.09 0.09 68 1007.6
20210624215004 84 1 1.0 3.0 0.00 0.09 0.09 66 1007.6
20210624214004 84 1 1.0 3.0 0.00 0.09 0.09 66 1007.5
20210624213504 84 1 2.0 4.0 0.00 0.09 0.09 65 1007.3
20210624213005 84 1 3.0 4.0 0.00 0.09 0.09 64 1007.3
20210624212503 84 1 2.0 4.0 0.00 0.09 0.09 65 1007.2
20210624211504 84 1 0.0 2.0 0.00 0.09 0.09 64 1007.6
20210624211004 84 1 1.0 2.0 0.00 0.09 0.09 63 1007.5
20210624210005 85 1 0.0 1.0 0.00 0.09 0.09 64 1007.8
20210624205504 85 1 1.0 3.0 0.00 0.09 0.09 64 1008.0
20210624204505 85 1 1.0 3.0 0.00 0.09 0.09 62 1008.0
20210624204003 85 1 1.0 2.0 0.00 0.09 0.09 64 1008.0
20210624203005 84 1 1.0 4.0 0.00 0.09 0.09 63 1008.1
20210624201505 85 1 2.0 6.0 0.00 0.09 0.09 62 1008.3
20210624201005 85 1 2.0 4.0 0.00 0.09 0.09 66 1008.4
20210624195504 83 1 1.0 4.0 0.00 0.09 0.09 65 1008.3
20210624195003 83 1 1.0 4.0 0.00 0.09 0.09 65 1008.3
20210624194505 83 1 2.0 6.0 0.00 0.09 0.09 66 1008.4
20210624194004 83 1 3.0 9.0 0.00 0.09 0.09 64 1008.5
20210624193005 83 1 2.0 5.0 0.00 0.09 0.09 65 1008.4
20210624192505 83 1 2.0 6.0 0.00 0.09 0.09 63 1008.4
20210624185504 82 1 3.0 8.0 0.00 0.09 0.09 65 1008.5
20210624184504 82 1 3.0 6.0 0.00 0.09 0.09 67 1008.8
20210624183504 81 1 4.0 10.0 0.00 0.09 0.09 68 1008.7
20210624182503 81 1 4.0 9.0 0.00 0.09 0.09 67 1008.8
20210624182003 81 1 4.0 9.0 0.00 0.09 0.09 67 1008.9
20210624181505 81 1 4.0 8.0 0.00 0.09 0.09 68 1008.9
20210624181004 81 1 3.0 8.0 0.00 0.09 0.09 68 1008.9
20210624180504 81 1 3.0 8.0 0.00 0.09 0.09 68 1008.8
20210624180006 81 1 2.0 8.0 0.00 0.09 0.09 67 1008.9
20210624175504 81 1 2.0 5.0 0.00 0.09 0.09 70 1008.9
20210624174504 80 1 2.0 8.0 0.00 0.09 0.09 69 1009.0
20210624173504 80 1 1.0 4.0 0.00 0.09 0.09 71 1009.2
20210624173005 80 1 2.0 8.0 0.00 0.09 0.09 70 1009.3
20210624172005 80 1 3.0 9.0 0.00 0.09 0.09 69 1009.6
20210624171004 80 1 3.0 8.0 0.00 0.09 0.09 69 1009.4
20210624170503 80 1 3.0 6.0 0.00 0.09 0.09 70 1009.4
20210624165004 80 1 3.0 6.0 0.00 0.09 0.09 70 1009.5
20210624164504 80 359 3.0 6.0 0.00 0.09 0.09 70 1009.4
20210624164004 80 359 3.0 8.0 0.00 0.09 0.09 69 1009.3
20210624162003 80 357 2.0 6.0 0.00 0.09 0.09 69 1009.4
20210624161004 79 359 2.0 6.0 0.00 0.09 0.09 72 1009.4
20210624155504 80 357 2.0 6.0 0.00 0.09 0.09 71 1009.1
20210624155003 80 357 2.0 6.0 0.00 0.09 0.09 71 1009.1
20210624154004 79 335 1.0 4.0 0.00 0.09 0.09 74 1009.0
20210624152504 78 355 1.0 4.0 0.00 0.09 0.09 74 1008.7
20210624152003 78 1 1.0 4.0 0.00 0.09 0.09 75 1008.6
20210624151506 77 1 1.0 4.0 0.00 0.09 0.09 75 1008.4
20210624150503 76 1 1.0 3.0 0.00 0.09 0.09 78 1008.1
20210624145004 75 1 0.0 2.0 0.00 0.09 0.09 79 1007.9
20210624144505 74 1 1.0 2.0 0.00 0.09 0.09 80 1007.9
20210624143503 74 1 2.0 4.0 0.00 0.09 0.09 80 1007.8
20210624143005 74 1 1.0 4.0 0.00 0.09 0.09 79 1007.5
20210624142503 74 1 1.0 4.0 0.00 0.09 0.09 80 1007.4
20210624142003 73 1 2.0 4.0 0.00 0.09 0.09 79 1007.3
20210624141005 73 1 2.0 5.0 0.00 0.09 0.09 79 1007.2
20210624140503 73 3 2.0 4.0 0.00 0.09 0.09 79 1007.3
20210624140005 73 2 3.0 6.0 0.00 0.09 0.09 79 1007.1
20210624135505 73 1 3.0 6.0 0.00 0.09 0.09 80 1007.2
20210624135004 73 359 3.0 5.0 0.00 0.09 0.09 80 1007.1
20210624134504 73 1 2.0 5.0 0.00 0.09 0.09 80 1007.1
20210624133504 72 1 2.0 4.0 0.00 0.09 0.09 80 1007.0
20210624132503 72 359 3.0 9.0 0.00 0.09 0.09 83 1006.6
20210624132003 72 359 4.0 10.0 0.00 0.09 0.09 82 1006.5
20210624131505 72 1 5.0 10.0 0.00 0.09 0.09 81 1006.6
20210624131004 73 1 4.0 9.0 0.00 0.09 0.09 80 1006.3
20210624130005 73 359 2.0 6.0 0.00 0.09 0.09 78 1005.9
20210624124004 73 2 3.0 6.0 0.00 0.09 0.09 76 1005.1
20210624123503 74 1 2.0 4.0 0.00 0.09 0.09 76 1004.8
20210624123005 74 1 2.0 4.0 0.00 0.09 0.09 74 1004.6
20210624122504 74 1 3.0 9.0 0.00 0.09 0.09 74 1003.8
20210624122004 74 1 5.0 10.0 0.00 0.09 0.09 74 1003.4
20210624121003 74 1 8.0 16.0 0.00 0.09 0.09 73 1002.9
20210624120504 74 1 7.0 16.0 0.00 0.09 0.09 74 1003.1
20210624120005 74 1 7.0 17.0 0.00 0.09 0.09 74 1003.4
20210624115504 73 1 8.0 17.0 0.00 0.09 0.09 75 1004.0
20210624113503 73 1 11.0 22.0 0.00 0.09 0.09 76 1004.9
20210624112504 73 1 11.0 32.0 0.00 0.09 0.09 78 1005.5
20210624111505 72 1 7.0 22.0 0.00 0.09 0.09 79 1006.1
20210624111004 72 1 6.0 13.0 0.00 0.09 0.09 78 1005.5
20210624105504 72 1 7.0 13.0 0.00 0.09 0.09 77 1003.8
20210624105004 72 1 8.0 16.0 0.00 0.09 0.09 78 1003.2
20210624104003 72 1 8.0 17.0 0.00 0.09 0.09 79 1003.1
20210624102504 72 1 6.0 13.0 0.00 0.09 0.09 79 1003.1
20210624101505 72 1 5.0 10.0 0.01 0.09 0.09 79 1003.1
20210624100504 73 1 7.0 12.0 0.02 0.09 0.09 76 1003.7
20210624100005 73 1 9.0 22.0 0.02 0.09 0.09 75 1003.7
20210624095504 72 1 8.0 22.0 0.02 0.09 0.09 78 1004.4
20210624095004 71 1 6.0 13.0 0.02 0.09 0.09 81 1005.3
20210624094506 72 1 6.0 23.0 0.02 0.09 0.09 81 1005.3
20210624094003 72 1 9.0 23.0 0.02 0.09 0.09 80 1005.2
20210624093503 72 1 7.0 20.0 0.02 0.09 0.09 81 1005.7
20210624093005 72 1 5.0 9.0 0.02 0.09 0.09 81 1006.0
20210624092503 72 1 6.0 12.0 0.02 0.09 0.09 80 1005.6
20210624092004 72 359 6.0 12.0 0.01 0.08 0.08 79 1005.6
20210624091003 73 1 9.0 20.0 0.03 0.08 0.08 77 1006.4
20210624090005 74 1 10.0 20.0 0.05 0.07 0.07 75 1007.4
20210624085004 78 359 8.0 17.0 0.05 0.07 0.07 66 1007.6
20210624083504 80 1 12.0 24.0 0.07 0.07 0.07 56 1007.5
20210624083004 79 1 14.0 28.0 0.07 0.07 0.07 56 1007.4
20210624082503 78 1 15.0 30.0 0.07 0.07 0.07 62 1007.0
20210624082004 76 1 15.0 37.0 0.07 0.07 0.07 67 1007.0
20210624081505 73 1 12.0 37.0 0.07 0.07 0.07 75 1006.8
20210624081004 72 1 9.0 17.0 0.05 0.05 0.05 83 1006.5
20210624080504 72 1 9.0 25.0 0.03 0.03 0.03 82 1007.0
20210624080005 72 1 10.0 26.0 0.02 0.02 0.02 80 1006.9
20210624075503 72 1 12.0 26.0 0.02 0.02 0.02 80 1006.8
20210624074505 74 359 15.0 28.0 0.02 0.02 0.02 78 1006.4
20210624073504 81 1 7.0 27.0 0.00 0.00 0.00 72 1007.7
20210624073005 82 1 7.0 15.0 0.00 0.00 0.00 76 1006.3